Terminal Aerodrome Forecast
Issued by NWS

Home | Current Version | Previous Version | Text Only | Print | Product List | Glossary On
Versions: 1 2 3 4 5 6 7 8 9 10 11 12 13 14 15
000
FTUS46 KSEW 042329
TAFCLM
TAF
KCLM 042329Z 0500/0524 30014G22KT P6SM SKC
     FM050900 29012KT P6SM BKN015
     FM051800 30012KT P6SM VCSH BKN030 BKN050=

USA.gov is the U.S. government's official web portal to all federal, state and local government web resources and services.